Time;durP1;ratioP1;P1;durP2;ratioP2;P2;SDS_P1;SDS_P2;PMS_P1;PMS_P2;Temp;Humidity;BMP_temperature;BMP_pressure;BME280_temperature;BME280_humidity;BME280_pressure;Samples;Min_cycle;Max_cycle;Signal;HPM_P1;HPM_P2
2022/05/24 00:00:20;;;;;;;6.25;1.20;;;;;;;;;;5009854;28;20034;-69
2022/05/24 00:02:45;;;;;;;4.75;1.30;;;;;;;;;;5008698;28;20083;-71
2022/05/24 00:05:12;;;;;;;6.85;1.20;;;;;;;;;;5010283;28;20030;-71
2022/05/24 00:07:39;;;;;;;7.38;1.40;;;;;;;;;;5009871;28;20501;-66
2022/05/24 00:10:08;;;;;;;6.35;1.20;;;;;;;;;;5010088;28;20060;-69
2022/05/24 00:12:33;;;;;;;5.75;1.17;;;;;;;;;;5009801;28;20428;-69
2022/05/24 00:17:45;;;;;;;6.65;1.23;;;;;;;;;;5009525;28;20065;-69
2022/05/24 00:20:11;;;;;;;5.07;1.20;;;;;;;;;;5009709;28;20037;-68
2022/05/24 00:22:37;;;;;;;6.40;1.08;;;;;;;;;;5009657;28;20026;-70
2022/05/24 00:25:03;;;;;;;5.32;1.25;;;;;;;;;;5009875;28;20123;-70
2022/05/24 00:27:29;;;;;;;6.28;1.05;;;;;;;;;;5009543;28;20058;-71
2022/05/24 00:29:55;;;;;;;6.05;1.50;;;;;;;;;;5009963;28;20037;-68
2022/05/24 00:32:21;;;;;;;6.25;1.13;;;;;;;;;;5009892;28;20188;-67
2022/05/24 00:34:47;;;;;;;5.32;1.17;;;;;;;;;;5009460;28;20177;-68
2022/05/24 00:37:12;;;;;;;6.00;1.15;;;;;;;;;;5009530;28;20084;-70
2022/05/24 00:39:38;;;;;;;5.78;1.17;;;;;;;;;;5008024;28;20034;-67
2022/05/24 00:42:09;;;;;;;6.07;1.17;;;;;;;;;;5009457;28;20202;-69
2022/05/24 00:44:39;;;;;;;5.07;1.50;;;;;;;;;;5009377;28;20042;-68
2022/05/24 00:47:16;;;;;;;3.90;1.07;;;;;;;;;;5011416;28;20030;-71
2022/05/24 00:49:45;;;;;;;4.95;1.10;;;;;;;;;;5012770;28;20620;-68
2022/05/24 00:52:13;;;;;;;3.47;0.90;;;;;;;;;;5012791;28;20038;-70
2022/05/24 00:54:40;;;;;;;5.45;1.02;;;;;;;;;;5012774;28;20276;-67
2022/05/24 00:57:30;;;;;;;5.93;1.33;;;;;;;;;;5012837;28;20449;-66
2022/05/24 01:00:06;;;;;;;5.80;1.30;;;;;;;;;;5012882;28;20034;-73
2022/05/24 01:02:32;;;;;;;5.50;1.10;;;;;;;;;;5012744;28;20049;-72
2022/05/24 01:04:58;;;;;;;5.60;1.10;;;;;;;;;;5012827;28;20041;-74
2022/05/24 01:07:23;;;;;;;9.10;1.23;;;;;;;;;;5012441;28;20022;-71
2022/05/24 01:09:58;;;;;;;8.07;1.10;;;;;;;;;;5012384;28;20026;-74
2022/05/24 01:12:53;;;;;;;6.13;1.48;;;;;;;;;;5012430;28;20022;-71
2022/05/24 01:15:20;;;;;;;7.75;1.10;;;;;;;;;;5012174;28;20175;-69
2022/05/24 01:17:48;;;;;;;7.57;1.20;;;;;;;;;;5012335;28;20076;-74
2022/05/24 01:20:13;;;;;;;4.90;1.05;;;;;;;;;;5012412;28;20103;-70
2022/05/24 01:23:04;;;;;;;4.90;1.13;;;;;;;;;;5012623;28;20077;-72
2022/05/24 01:25:35;;;;;;;4.38;1.00;;;;;;;;;;5012336;28;20105;-72
2022/05/24 01:28:06;;;;;;;2.92;0.90;;;;;;;;;;5012488;28;20072;-73
2022/05/24 01:30:31;;;;;;;8.43;1.58;;;;;;;;;;5012228;28;20026;-70
2022/05/24 03:19:29;;;;;;;;;;;;;;;;;;3875999;28;22023;-67
2022/05/24 03:21:55;;;;;;;4.57;1.13;;;;;;;;;;5010243;28;20113;-69
2022/05/24 03:24:20;;;;;;;7.90;1.05;;;;;;;;;;5010645;28;20038;-69
2022/05/24 03:26:45;;;;;;;4.40;1.13;;;;;;;;;;5010194;28;20061;-71
2022/05/24 03:29:11;;;;;;;7.22;1.13;;;;;;;;;;5010262;28;20061;-72
2022/05/24 03:31:37;;;;;;;4.45;1.00;;;;;;;;;;5010202;28;20055;-68
2022/05/24 03:34:02;;;;;;;3.30;1.08;;;;;;;;;;5010236;28;20084;-66
2022/05/24 03:36:28;;;;;;;5.80;1.10;;;;;;;;;;5009911;28;20113;-72
2022/05/24 03:38:53;;;;;;;9.63;1.38;;;;;;;;;;5010382;28;20030;-73
2022/05/24 03:41:19;;;;;;;4.32;1.10;;;;;;;;;;5010410;28;20030;-67
2022/05/24 03:43:44;;;;;;;4.47;1.30;;;;;;;;;;5010089;28;20351;-67
2022/05/24 03:46:11;;;;;;;4.13;1.15;;;;;;;;;;5009931;28;20117;-73
2022/05/24 03:48:37;;;;;;;7.53;1.20;;;;;;;;;;5009981;28;20494;-70
2022/05/24 03:51:03;;;;;;;5.82;1.05;;;;;;;;;;5010199;28;20030;-68
2022/05/24 03:53:29;;;;;;;3.83;1.05;;;;;;;;;;5010182;28;20445;-67
2022/05/24 03:55:55;;;;;;;4.38;1.00;;;;;;;;;;5010043;28;20032;-72
2022/05/24 03:58:22;;;;;;;3.80;0.90;;;;;;;;;;5010310;28;20037;-73
2022/05/24 04:00:48;;;;;;;5.55;1.20;;;;;;;;;;5010336;28;20106;-71
2022/05/24 04:03:13;;;;;;;4.30;1.00;;;;;;;;;;5009845;28;20058;-67
2022/05/24 04:05:39;;;;;;;5.45;1.30;;;;;;;;;;5009627;28;20061;-72
2022/05/24 04:08:05;;;;;;;6.55;1.23;;;;;;;;;;5009809;28;20120;-69
2022/05/24 04:10:31;;;;;;;7.10;1.55;;;;;;;;;;5010017;28;20030;-66
2022/05/24 04:12:57;;;;;;;5.70;1.23;;;;;;;;;;5010277;28;20086;-70
2022/05/24 04:15:23;;;;;;;7.78;1.25;;;;;;;;;;5009786;28;20101;-68
2022/05/24 04:17:52;;;;;;;6.22;1.10;;;;;;;;;;5009847;28;20033;-68
2022/05/24 04:20:19;;;;;;;5.95;1.05;;;;;;;;;;5009482;28;20084;-67
2022/05/24 04:22:45;;;;;;;3.63;1.08;;;;;;;;;;5012580;28;20030;-70
2022/05/24 04:25:13;;;;;;;4.15;1.08;;;;;;;;;;5013291;28;20094;-70
2022/05/24 04:27:38;;;;;;;5.10;0.80;;;;;;;;;;5013849;28;20176;-66
2022/05/24 04:30:06;;;;;;;3.05;0.80;;;;;;;;;;5013579;28;20506;-66
2022/05/24 04:32:31;;;;;;;4.63;1.10;;;;;;;;;;5012119;28;20033;-74
2022/05/24 04:34:57;;;;;;;5.10;0.90;;;;;;;;;;5013093;28;20018;-71
2022/05/24 04:37:23;;;;;;;3.83;0.80;;;;;;;;;;5013041;28;20496;-70
2022/05/24 04:39:48;;;;;;;4.13;0.82;;;;;;;;;;5012969;28;20396;-68
2022/05/24 04:42:21;;;;;;;4.80;1.00;;;;;;;;;;5013008;28;20088;-71
2022/05/24 04:44:48;;;;;;;4.07;1.00;;;;;;;;;;5013074;28;20076;-74
2022/05/24 04:47:14;;;;;;;4.95;0.82;;;;;;;;;;5013244;28;20113;-71
2022/05/24 04:49:44;;;;;;;5.05;0.90;;;;;;;;;;5013255;28;20093;-71
2022/05/24 04:52:10;;;;;;;3.10;1.00;;;;;;;;;;5013068;28;20042;-74
2022/05/24 04:54:40;;;;;;;2.45;0.68;;;;;;;;;;5012984;28;20504;-71
2022/05/24 04:57:07;;;;;;;7.20;0.93;;;;;;;;;;5012750;28;20081;-72
2022/05/24 04:59:32;;;;;;;3.47;1.00;;;;;;;;;;5012893;28;20117;-73
2022/05/24 05:01:58;;;;;;;2.85;0.80;;;;;;;;;;5012931;28;20462;-71
2022/05/24 05:04:24;;;;;;;5.65;1.00;;;;;;;;;;5012874;28;20040;-73
2022/05/24 05:06:50;;;;;;;4.60;1.00;;;;;;;;;;5012521;28;20473;-66
2022/05/24 05:09:16;;;;;;;4.82;1.02;;;;;;;;;;5012792;28;20030;-71
2022/05/24 05:11:43;;;;;;;5.00;0.95;;;;;;;;;;5012708;28;20389;-70
2022/05/24 05:14:09;;;;;;;4.18;1.00;;;;;;;;;;5012580;28;20022;-73
2022/05/24 05:16:38;;;;;;;2.58;0.70;;;;;;;;;;5012224;28;20413;-67
2022/05/24 05:19:05;;;;;;;3.15;0.93;;;;;;;;;;5012479;28;20087;-72
2022/05/24 05:21:33;;;;;;;8.15;1.00;;;;;;;;;;5012267;28;20046;-68
2022/05/24 05:23:59;;;;;;;2.85;0.70;;;;;;;;;;5012754;28;20026;-68
2022/05/24 05:26:25;;;;;;;6.18;1.20;;;;;;;;;;5012515;28;20492;-72
2022/05/24 05:28:51;;;;;;;5.22;1.00;;;;;;;;;;5012343;28;20026;-70
2022/05/24 05:31:16;;;;;;;4.90;1.20;;;;;;;;;;5012138;28;20022;-68
2022/05/24 05:33:43;;;;;;;4.10;1.10;;;;;;;;;;5011938;28;20025;-69
2022/05/24 05:36:09;;;;;;;4.50;1.10;;;;;;;;;;5011941;28;20028;-69
2022/05/24 05:38:35;;;;;;;5.15;0.90;;;;;;;;;;5012121;28;20394;-69
2022/05/24 05:41:00;;;;;;;6.60;1.05;;;;;;;;;;5012730;28;20037;-68
2022/05/24 05:43:26;;;;;;;7.78;1.00;;;;;;;;;;5011942;28;20175;-72
2022/05/24 05:45:57;;;;;;;7.57;1.40;;;;;;;;;;5011625;28;20113;-68
2022/05/24 05:48:23;;;;;;;7.22;1.23;;;;;;;;;;5011808;28;20022;-70
2022/05/24 05:50:49;;;;;;;5.45;0.88;;;;;;;;;;5011548;28;20053;-73
2022/05/24 05:53:15;;;;;;;6.60;1.20;;;;;;;;;;5010388;28;20025;-68
2022/05/24 05:55:41;;;;;;;3.30;1.00;;;;;;;;;;5011697;28;20057;-71
2022/05/24 05:58:07;;;;;;;4.70;1.00;;;;;;;;;;5011893;28;20131;-72
2022/05/24 06:00:33;;;;;;;5.00;1.10;;;;;;;;;;5011737;28;20025;-70
2022/05/24 06:02:59;;;;;;;7.30;1.10;;;;;;;;;;5011989;28;20048;-73
2022/05/24 06:05:24;;;;;;;12.15;1.40;;;;;;;;;;5011373;28;20478;-73
2022/05/24 06:07:50;;;;;;;5.07;1.00;;;;;;;;;;5011335;28;20148;-71
2022/05/24 06:10:16;;;;;;;3.67;1.00;;;;;;;;;;5011785;28;20084;-70
2022/05/24 06:12:42;;;;;;;6.47;1.13;;;;;;;;;;5011680;28;20436;-73
2022/05/24 06:15:08;;;;;;;6.55;1.30;;;;;;;;;;5011672;28;20026;-74
2022/05/24 06:17:45;;;;;;;7.32;1.30;;;;;;;;;;5011333;28;20092;-68
2022/05/24 06:20:10;;;;;;;9.40;1.10;;;;;;;;;;5011258;28;20433;-72
2022/05/24 06:22:36;;;;;;;7.07;1.08;;;;;;;;;;5011200;28;20037;-74
2022/05/24 06:25:02;;;;;;;6.45;1.30;;;;;;;;;;5011233;28;20026;-68
2022/05/24 06:27:27;;;;;;;7.63;1.17;;;;;;;;;;5010982;28;20034;-74
2022/05/24 06:29:52;;;;;;;7.50;1.30;;;;;;;;;;5011460;28;20030;-73
2022/05/24 06:32:18;;;;;;;7.25;1.30;;;;;;;;;;5011385;28;20041;-73
2022/05/24 06:34:45;;;;;;;6.00;1.20;;;;;;;;;;5011252;28;20045;-73
2022/05/24 06:37:11;;;;;;;3.65;1.00;;;;;;;;;;5010947;28;20401;-73
2022/05/24 06:39:36;;;;;;;8.63;1.55;;;;;;;;;;5011000;28;20034;-73
2022/05/24 06:42:02;;;;;;;5.15;1.08;;;;;;;;;;5010765;28;20572;-68
2022/05/24 06:44:27;;;;;;;7.03;1.38;;;;;;;;;;5010290;28;20073;-73
2022/05/24 06:46:52;;;;;;;7.53;1.30;;;;;;;;;;5010987;28;20030;-72
2022/05/24 06:49:18;;;;;;;7.15;1.17;;;;;;;;;;5010840;28;20040;-72
2022/05/24 06:51:43;;;;;;;6.20;1.35;;;;;;;;;;5010716;28;20339;-72
2022/05/24 06:54:09;;;;;;;6.90;1.20;;;;;;;;;;5011178;28;20408;-74
2022/05/24 06:56:35;;;;;;;8.57;1.13;;;;;;;;;;5010338;28;20458;-73
2022/05/24 07:04:28;;;;;;;5.68;1.25;;;;;;;;;;5010782;28;20432;-74
2022/05/24 07:06:53;;;;;;;8.32;1.17;;;;;;;;;;5010872;28;20029;-73
2022/05/24 07:09:19;;;;;;;5.63;1.33;;;;;;;;;;5010593;28;20438;-73
2022/05/24 07:11:44;;;;;;;7.95;1.10;;;;;;;;;;5010494;28;20030;-72
2022/05/24 07:14:10;;;;;;;6.20;1.10;;;;;;;;;;5010464;28;20108;-72
2022/05/24 07:16:35;;;;;;;5.65;1.13;;;;;;;;;;5010127;28;20026;-72
2022/05/24 07:19:00;;;;;;;8.82;1.27;;;;;;;;;;5010190;28;20030;-72
2022/05/24 07:21:26;;;;;;;6.90;1.20;;;;;;;;;;5010087;28;20502;-72
2022/05/24 07:23:51;;;;;;;4.18;1.13;;;;;;;;;;5010597;28;20080;-72
2022/05/24 07:26:21;;;;;;;6.03;1.30;;;;;;;;;;5010224;28;20041;-74
2022/05/24 07:28:47;;;;;;;7.07;1.23;;;;;;;;;;5010702;28;20133;-73
2022/05/24 07:31:12;;;;;;;6.07;1.45;;;;;;;;;;5010137;28;20112;-74
2022/05/24 07:33:38;;;;;;;6.13;1.20;;;;;;;;;;5010068;28;20022;-72
2022/05/24 07:36:05;;;;;;;5.50;1.30;;;;;;;;;;5009790;28;20553;-74
2022/05/24 07:38:31;;;;;;;7.07;1.08;;;;;;;;;;5010161;28;20053;-73
2022/05/24 07:46:25;;;;;;;6.28;1.02;;;;;;;;;;5010060;28;20048;-73
2022/05/24 07:48:50;;;;;;;5.75;1.15;;;;;;;;;;5010467;28;20466;-74
2022/05/24 07:51:15;;;;;;;4.93;1.30;;;;;;;;;;5009776;28;20021;-73
2022/05/24 07:53:41;;;;;;;3.50;0.98;;;;;;;;;;5009812;28;20025;-74
2022/05/24 07:56:07;;;;;;;4.78;1.00;;;;;;;;;;5010239;28;20525;-74
2022/05/24 07:58:32;;;;;;;6.22;1.17;;;;;;;;;;5014188;28;20033;-74
2022/05/24 08:00:59;;;;;;;7.28;1.00;;;;;;;;;;5013855;28;20115;-72
2022/05/24 08:03:25;;;;;;;9.50;1.30;;;;;;;;;;5013867;28;20118;-75
2022/05/24 08:05:50;;;;;;;8.32;1.17;;;;;;;;;;5013537;28;20030;-73
2022/05/24 08:08:17;;;;;;;5.05;1.13;;;;;;;;;;5013369;28;20037;-70
2022/05/24 08:10:43;;;;;;;7.82;0.90;;;;;;;;;;5013885;28;20057;-73
2022/05/24 08:13:12;;;;;;;6.13;1.08;;;;;;;;;;5013633;28;20030;-70
2022/05/24 08:15:37;;;;;;;7.82;1.20;;;;;;;;;;5013764;28;20029;-71
2022/05/24 08:18:04;;;;;;;7.28;1.15;;;;;;;;;;5013616;28;20133;-72
2022/05/24 08:20:30;;;;;;;5.28;1.10;;;;;;;;;;5013320;28;20049;-72
2022/05/24 08:22:57;;;;;;;4.43;0.93;;;;;;;;;;5013325;28;20025;-70
2022/05/24 08:25:24;;;;;;;4.93;0.98;;;;;;;;;;5013361;28;20462;-72
2022/05/24 08:27:50;;;;;;;5.65;0.90;;;;;;;;;;5013323;28;20025;-72
2022/05/24 08:30:17;;;;;;;3.83;1.10;;;;;;;;;;5013413;28;20026;-69
2022/05/24 08:32:43;;;;;;;4.90;1.20;;;;;;;;;;5013467;28;20256;-72
2022/05/24 08:35:11;;;;;;;7.00;1.10;;;;;;;;;;5013398;28;20405;-69
2022/05/24 08:37:37;;;;;;;6.22;1.17;;;;;;;;;;5013075;28;20022;-73
2022/05/24 08:40:03;;;;;;;4.85;1.10;;;;;;;;;;5013076;28;20478;-73
2022/05/24 08:43:09;;;;;;;6.32;1.33;;;;;;;;;;5012958;28;20041;-73
2022/05/24 08:48:44;;;;;;;6.97;1.60;;;;;;;;;;5013349;28;20034;-70
2022/05/24 08:51:28;;;;;;;5.95;1.33;;;;;;;;;;5012880;28;20029;-73
2022/05/24 08:53:57;;;;;;;6.55;1.10;;;;;;;;;;5013364;28;20034;-73
2022/05/24 08:56:29;;;;;;;7.37;1.10;;;;;;;;;;5012699;28;20026;-73
2022/05/24 08:59:04;;;;;;;5.78;1.00;;;;;;;;;;5013311;28;20029;-71
2022/05/24 09:01:32;;;;;;;5.65;1.00;;;;;;;;;;5012642;28;20029;-72
2022/05/24 09:04:04;;;;;;;5.95;1.40;;;;;;;;;;5012712;28;20099;-67
2022/05/24 09:06:36;;;;;;;7.60;1.30;;;;;;;;;;5012605;28;20061;-67
2022/05/24 09:09:20;;;;;;;5.53;1.30;;;;;;;;;;5012503;28;20111;-72
2022/05/24 09:12:00;;;;;;;7.32;1.13;;;;;;;;;;5013329;28;20066;-68
2022/05/24 09:14:44;;;;;;;7.75;1.60;;;;;;;;;;5012570;28;20508;-72
2022/05/24 09:17:43;;;;;;;38.97;2.90;;;;;;;;;;5012346;28;20083;-67
2022/05/24 09:20:28;;;;;;;19.80;1.70;;;;;;;;;;5012159;28;20050;-67
2022/05/24 09:23:02;;;;;;;13.48;1.92;;;;;;;;;;5012379;28;20053;-66
2022/05/24 09:25:27;;;;;;;16.52;1.88;;;;;;;;;;5012772;28;20030;-66
2022/05/24 09:27:55;;;;;;;33.63;2.20;;;;;;;;;;5012406;28;20030;-69
2022/05/24 09:30:25;;;;;;;22.45;2.85;;;;;;;;;;5011123;28;20029;-68
2022/05/24 09:32:50;;;;;;;52.03;4.25;;;;;;;;;;5012265;28;20057;-70
2022/05/24 09:35:16;;;;;;;31.27;2.22;;;;;;;;;;5012222;28;20038;-70
2022/05/24 09:37:43;;;;;;;10.68;1.83;;;;;;;;;;5011936;28;20105;-70
2022/05/24 09:40:24;;;;;;;15.50;1.80;;;;;;;;;;5012105;28;20026;-74
2022/05/24 09:42:50;;;;;;;6.03;0.90;;;;;;;;;;5012490;28;20018;-72
2022/05/24 09:45:18;;;;;;;97.45;5.03;;;;;;;;;;5012116;28;20433;-73
2022/05/24 09:47:44;;;;;;;73.75;3.97;;;;;;;;;;5012088;28;20066;-72
2022/05/24 09:50:18;;;;;;;16.48;1.70;;;;;;;;;;5012120;28;20045;-71
2022/05/24 09:53:02;;;;;;;14.10;1.50;;;;;;;;;;5011786;28;20030;-73
2022/05/24 09:55:43;;;;;;;7.28;1.00;;;;;;;;;;5011583;28;20257;-73
2022/05/24 09:58:20;;;;;;;88.45;4.80;;;;;;;;;;5011458;28;20064;-75
2022/05/24 10:00:56;;;;;;;27.27;2.10;;;;;;;;;;5011942;28;20038;-74
2022/05/24 10:03:42;;;;;;;13.07;1.80;;;;;;;;;;5011833;28;20030;-72
2022/05/24 10:06:12;;;;;;;29.30;2.58;;;;;;;;;;5011328;28;20033;-73
2022/05/24 10:09:00;;;;;;;7.22;0.98;;;;;;;;;;5011356;28;20028;-73
2022/05/24 10:11:33;;;;;;;7.15;1.00;;;;;;;;;;5011330;28;20026;-73
2022/05/24 10:14:14;;;;;;;6.60;1.10;;;;;;;;;;5011362;28;20026;-74
2022/05/24 10:16:46;;;;;;;5.35;0.93;;;;;;;;;;5010164;28;20052;-74
2022/05/24 10:19:25;;;;;;;4.38;0.80;;;;;;;;;;5010265;28;20022;-73
2022/05/24 10:22:21;;;;;;;4.18;0.90;;;;;;;;;;5011290;28;20038;-73
2022/05/24 10:25:04;;;;;;;3.65;0.98;;;;;;;;;;5011328;28;20032;-73
2022/05/24 10:27:42;;;;;;;5.65;1.00;;;;;;;;;;5010973;28;20030;-73
2022/05/24 10:30:16;;;;;;;4.68;1.10;;;;;;;;;;5011334;28;20078;-73
2022/05/24 10:39:45;;;;;;;8.02;1.60;;;;;;;;;;5011484;28;20041;-73
2022/05/24 10:42:16;;;;;;;5.20;1.45;;;;;;;;;;5011015;28;20100;-72
2022/05/24 10:44:53;;;;;;;6.70;1.05;;;;;;;;;;5010826;28;20516;-72
2022/05/24 10:47:44;;;;;;;8.10;0.80;;;;;;;;;;5010677;28;20393;-73
2022/05/24 10:50:13;;;;;;;5.80;1.10;;;;;;;;;;5011005;28;20026;-74
2022/05/24 10:53:01;;;;;;;5.97;1.08;;;;;;;;;;5010852;28;20084;-74
2022/05/24 10:55:38;;;;;;;4.45;0.90;;;;;;;;;;5011288;28;20021;-74
2022/05/24 10:58:09;;;;;;;7.50;1.25;;;;;;;;;;5010705;28;20429;-74
2022/05/24 11:01:03;;;;;;;4.68;1.10;;;;;;;;;;5010632;28;20040;-73
2022/05/24 11:03:33;;;;;;;7.97;1.10;;;;;;;;;;5010590;28;20026;-73
2022/05/24 11:06:24;;;;;;;4.47;1.00;;;;;;;;;;5010631;28;20234;-74
2022/05/24 11:09:00;;;;;;;3.38;0.95;;;;;;;;;;5010161;28;20036;-74
2022/05/24 11:11:48;;;;;;;8.93;1.42;;;;;;;;;;5010739;28;20152;-73
2022/05/24 11:14:17;;;;;;;13.57;1.33;;;;;;;;;;5010559;28;20034;-73
2022/05/24 11:16:48;;;;;;;4.30;1.10;;;;;;;;;;5010966;28;20269;-71
2022/05/24 11:19:15;;;;;;;4.20;1.17;;;;;;;;;;5010113;28;20041;-73
2022/05/24 11:21:57;;;;;;;4.00;1.02;;;;;;;;;;5010345;28;20046;-73
2022/05/24 11:24:35;;;;;;;3.83;0.90;;;;;;;;;;5010470;28;20026;-73
2022/05/24 11:27:02;;;;;;;6.78;0.95;;;;;;;;;;5010586;28;20026;-73
2022/05/24 11:29:43;;;;;;;6.75;1.13;;;;;;;;;;5010247;28;20022;-74
2022/05/24 11:32:10;;;;;;;6.85;1.10;;;;;;;;;;5010114;28;20114;-74
2022/05/24 11:34:41;;;;;;;7.53;1.38;;;;;;;;;;5009869;28;20577;-74
2022/05/24 11:37:24;;;;;;;5.30;0.90;;;;;;;;;;5010027;28;20049;-74
2022/05/24 11:39:50;;;;;;;6.95;1.40;;;;;;;;;;5010022;28;20038;-73
2022/05/24 11:42:22;;;;;;;4.68;1.02;;;;;;;;;;5010285;28;20033;-73
2022/05/24 11:44:48;;;;;;;5.70;1.30;;;;;;;;;;5010200;28;20438;-73
2022/05/24 11:47:35;;;;;;;6.65;1.13;;;;;;;;;;5009868;28;20037;-70
2022/05/24 11:50:09;;;;;;;4.43;0.90;;;;;;;;;;5010437;28;20026;-73
2022/05/24 11:52:43;;;;;;;6.63;1.20;;;;;;;;;;5009661;28;20034;-75
2022/05/24 11:55:09;;;;;;;5.43;1.10;;;;;;;;;;5009826;28;20025;-74
2022/05/24 11:57:41;;;;;;;7.38;1.10;;;;;;;;;;5009992;28;20385;-72
2022/05/24 12:00:09;;;;;;;5.60;1.30;;;;;;;;;;5010014;28;20504;-70
2022/05/24 12:07:54;;;;;;;5.88;1.10;;;;;;;;;;5010072;28;20100;-71
2022/05/24 12:08:37;;;;;;;6.05;1.00;;;;;;;;;;5009740;28;20080;-72
2022/05/24 12:11:05;;;;;;;6.68;1.30;;;;;;;;;;5009867;28;20025;-68
2022/05/24 12:13:38;;;;;;;5.68;1.20;;;;;;;;;;5009949;28;20037;-69
2022/05/24 12:16:45;;;;;;;10.88;1.50;;;;;;;;;;5010000;28;20109;-69
2022/05/24 12:19:32;;;;;;;4.40;0.90;;;;;;;;;;5009726;28;20101;-74
2022/05/24 12:21:57;;;;;;;5.95;1.20;;;;;;;;;;5005913;28;20041;-73
2022/05/24 12:24:23;;;;;;;5.75;1.20;;;;;;;;;;5008628;28;20032;-66
2022/05/24 12:27:15;;;;;;;8.00;1.10;;;;;;;;;;5009903;28;20034;-70
2022/05/24 12:29:44;;;;;;;5.05;1.00;;;;;;;;;;5010248;28;20315;-69
2022/05/24 12:32:09;;;;;;;4.22;0.98;;;;;;;;;;5009777;28;20050;-72
2022/05/24 12:34:35;;;;;;;6.05;0.93;;;;;;;;;;5010111;28;20053;-68
2022/05/24 12:37:25;;;;;;;7.93;1.23;;;;;;;;;;5009570;28;20052;-66
2022/05/24 12:40:19;;;;;;;3.70;1.00;;;;;;;;;;5009573;28;20121;-68
2022/05/24 12:42:56;;;;;;;6.63;1.15;;;;;;;;;;5011101;28;20029;-66
2022/05/24 12:45:31;;;;;;;6.97;1.35;;;;;;;;;;5013047;28;20060;-66
2022/05/24 12:47:59;;;;;;;105.15;3.88;;;;;;;;;;5012903;28;20498;-72
2022/05/24 12:50:30;;;;;;;49.60;2.97;;;;;;;;;;5013178;28;20083;-74
2022/05/24 12:53:01;;;;;;;;;;;;;;;;;;5013781;28;20029;-69
2022/05/24 12:58:22;;;;;;;6.05;1.10;;;;;;;;;;5012981;28;20068;-73
2022/05/24 13:00:47;;;;;;;7.63;1.48;;;;;;;;;;5012877;28;20046;-74
2022/05/24 13:03:25;;;;;;;7.97;0.98;;;;;;;;;;5011376;28;20029;-74
2022/05/24 13:05:53;;;;;;;3.88;0.90;;;;;;;;;;5012685;28;20053;-75
2022/05/24 13:08:18;;;;;;;8.40;1.20;;;;;;;;;;5012610;28;20026;-73
2022/05/24 13:10:45;;;;;;;10.30;1.00;;;;;;;;;;5012912;28;20030;-69
2022/05/24 13:13:22;;;;;;;7.57;1.33;;;;;;;;;;5012714;28;20033;-73
2022/05/24 13:15:54;;;;;;;3.42;0.98;;;;;;;;;;5012576;28;20034;-73
2022/05/24 13:18:23;;;;;;;3.95;1.00;;;;;;;;;;5012548;28;20033;-73
2022/05/24 13:20:57;;;;;;;6.05;0.90;;;;;;;;;;5012031;28;20085;-70
2022/05/24 13:23:29;;;;;;;4.53;1.13;;;;;;;;;;5012440;28;20033;-73
2022/05/24 13:26:17;;;;;;;5.65;0.98;;;;;;;;;;5012746;28;20472;-72
2022/05/24 13:28:56;;;;;;;4.75;0.98;;;;;;;;;;5012524;28;20026;-74
2022/05/24 13:34:27;;;;;;;7.97;1.00;;;;;;;;;;5012357;28;20088;-70
2022/05/24 13:36:55;;;;;;;4.18;0.80;;;;;;;;;;5012021;28;20045;-67
2022/05/24 13:39:28;;;;;;;6.82;1.20;;;;;;;;;;5011708;28;20060;-70
2022/05/24 13:41:56;;;;;;;4.88;1.00;;;;;;;;;;5011972;28;20531;-67
2022/05/24 13:45:01;;;;;;;9.18;1.20;;;;;;;;;;5012076;28;20497;-68
2022/05/24 13:47:34;;;;;;;4.68;1.00;;;;;;;;;;5012079;28;20026;-73
2022/05/24 13:50:19;;;;;;;2.88;0.73;;;;;;;;;;5011920;28;20118;-74
2022/05/24 13:52:53;;;;;;;4.63;0.90;;;;;;;;;;5012015;28;20145;-73
2022/05/24 13:55:21;;;;;;;3.20;0.75;;;;;;;;;;5011752;28;20085;-74
2022/05/24 13:57:51;;;;;;;3.53;0.80;;;;;;;;;;5011817;28;20085;-73
2022/05/24 14:00:23;;;;;;;3.60;0.90;;;;;;;;;;5011601;28;20553;-72
2022/05/24 14:03:17;;;;;;;4.78;0.90;;;;;;;;;;5012133;28;20492;-73
2022/05/24 14:05:44;;;;;;;2.25;0.70;;;;;;;;;;5011665;28;20560;-73
2022/05/24 14:08:10;;;;;;;4.68;1.02;;;;;;;;;;5011766;28;20024;-72
2022/05/24 14:10:37;;;;;;;12.52;1.45;;;;;;;;;;5011603;28;20053;-74
2022/05/24 14:13:04;;;;;;;9.55;1.13;;;;;;;;;;5011432;28;20032;-73
2022/05/24 14:15:29;;;;;;;5.72;0.73;;;;;;;;;;5011520;28;20062;-73
2022/05/24 14:17:55;;;;;;;7.00;1.08;;;;;;;;;;5011567;28;20366;-74
2022/05/24 14:20:21;;;;;;;3.10;0.60;;;;;;;;;;5011159;28;20052;-72
2022/05/24 14:22:46;;;;;;;4.20;0.70;;;;;;;;;;5011511;28;20514;-67
2022/05/24 14:25:13;;;;;;;3.08;0.90;;;;;;;;;;5010024;28;20033;-70
2022/05/24 14:27:39;;;;;;;3.13;0.70;;;;;;;;;;5011501;28;20485;-67
2022/05/24 14:30:07;;;;;;;3.53;0.70;;;;;;;;;;5011027;28;20026;-72
2022/05/24 14:32:34;;;;;;;5.07;0.80;;;;;;;;;;5011261;28;20014;-74
2022/05/24 14:34:59;;;;;;;3.92;0.88;;;;;;;;;;5011158;28;20029;-73
2022/05/24 14:37:25;;;;;;;2.97;0.80;;;;;;;;;;5011056;28;20363;-68
2022/05/24 14:39:50;;;;;;;5.20;1.13;;;;;;;;;;5010951;28;20497;-73
2022/05/24 14:42:18;;;;;;;5.20;1.02;;;;;;;;;;5011189;28;20026;-71
2022/05/24 14:44:44;;;;;;;6.20;1.20;;;;;;;;;;5010929;28;20108;-70
2022/05/24 14:47:09;;;;;;;2.53;0.82;;;;;;;;;;5010595;28;20149;-75
2022/05/24 14:49:34;;;;;;;6.55;0.98;;;;;;;;;;5010895;28;20060;-73
2022/05/24 14:52:07;;;;;;;6.15;1.00;;;;;;;;;;5010440;28;20511;-69
2022/05/24 14:54:38;;;;;;;2.95;0.80;;;;;;;;;;5010779;28;20065;-73
2022/05/24 14:57:03;;;;;;;3.50;0.82;;;;;;;;;;5011110;28;20382;-74
2022/05/24 14:59:29;;;;;;;3.15;0.63;;;;;;;;;;5010330;28;20034;-73
2022/05/24 15:01:54;;;;;;;2.60;0.80;;;;;;;;;;5010528;28;20022;-73
2022/05/24 15:04:20;;;;;;;3.63;0.80;;;;;;;;;;5010715;28;20018;-73
2022/05/24 15:06:48;;;;;;;2.17;0.68;;;;;;;;;;5010345;28;20032;-73
2022/05/24 15:17:33;;;;;;;2.45;0.70;;;;;;;;;;5010213;28;20045;-67
2022/05/24 15:20:12;;;;;;;2.75;0.65;;;;;;;;;;5008940;28;20050;-67
2022/05/24 15:22:44;;;;;;;2.85;0.60;;;;;;;;;;5010120;28;20124;-66
2022/05/24 15:25:12;;;;;;;2.40;0.60;;;;;;;;;;5010511;28;20036;-67
2022/05/24 15:27:38;;;;;;;2.70;0.70;;;;;;;;;;5010820;28;20081;-73
2022/05/24 15:30:06;;;;;;;5.28;0.70;;;;;;;;;;5010275;28;20022;-68
2022/05/24 15:32:31;;;;;;;4.13;0.80;;;;;;;;;;5010444;28;20489;-68
2022/05/24 15:34:56;;;;;;;5.30;0.98;;;;;;;;;;5010793;28;20026;-70
2022/05/24 15:37:22;;;;;;;3.80;0.80;;;;;;;;;;5010209;28;20030;-70
2022/05/24 15:39:49;;;;;;;4.63;1.00;;;;;;;;;;5010109;28;20053;-72
2022/05/24 15:42:16;;;;;;;8.25;1.20;;;;;;;;;;5010032;28;20374;-72
2022/05/24 15:44:42;;;;;;;4.53;0.88;;;;;;;;;;5010894;28;20488;-74
2022/05/24 15:47:07;;;;;;;4.45;1.05;;;;;;;;;;5010636;28;20084;-71
2022/05/24 15:49:33;;;;;;;4.93;0.90;;;;;;;;;;5010323;28;20037;-72
2022/05/24 15:51:59;;;;;;;5.68;0.90;;;;;;;;;;5010009;28;20030;-73
2022/05/24 15:54:25;;;;;;;4.20;0.90;;;;;;;;;;5010642;28;20117;-71
2022/05/24 15:56:50;;;;;;;3.90;0.90;;;;;;;;;;5010299;28;20485;-72
2022/05/24 15:59:16;;;;;;;5.00;0.88;;;;;;;;;;5009736;28;20037;-73
2022/05/24 16:01:42;;;;;;;3.60;0.95;;;;;;;;;;5008646;28;20065;-74
2022/05/24 16:04:08;;;;;;;4.85;1.00;;;;;;;;;;5010079;28;20084;-72
2022/05/24 16:12:07;;;;;;;2.33;0.88;;;;;;;;;;5010317;28;20118;-73
2022/05/24 16:14:37;;;;;;;4.88;0.80;;;;;;;;;;5009868;28;20544;-73
2022/05/24 16:17:03;;;;;;;4.13;0.82;;;;;;;;;;5010164;28;20393;-74
2022/05/24 16:19:30;;;;;;;3.80;0.80;;;;;;;;;;5013630;28;20061;-73
2022/05/24 16:21:57;;;;;;;3.88;0.90;;;;;;;;;;5013632;28;20042;-72
2022/05/24 16:24:23;;;;;;;4.13;0.95;;;;;;;;;;5013672;28;20030;-73
2022/05/24 16:26:49;;;;;;;4.18;0.80;;;;;;;;;;5013748;28;20022;-72
2022/05/24 16:29:15;;;;;;;3.50;1.00;;;;;;;;;;5013790;28;20030;-74
2022/05/24 16:31:40;;;;;;;2.58;0.75;;;;;;;;;;5013220;28;20026;-72
2022/05/24 16:34:06;;;;;;;2.50;0.75;;;;;;;;;;5013243;28;20104;-72
2022/05/24 16:36:33;;;;;;;3.70;0.80;;;;;;;;;;5013399;28;20117;-71
2022/05/24 16:39:00;;;;;;;3.50;0.80;;;;;;;;;;5013390;28;20161;-73
2022/05/24 16:41:29;;;;;;;5.25;1.00;;;;;;;;;;5013382;28;20044;-73
2022/05/24 16:43:55;;;;;;;1.38;0.70;;;;;;;;;;5013307;28;20485;-73
2022/05/24 16:46:21;;;;;;;2.75;0.70;;;;;;;;;;5013111;28;20477;-72
2022/05/24 16:48:47;;;;;;;4.95;1.10;;;;;;;;;;5013109;28;20041;-70
2022/05/24 16:51:38;;;;;;;3.72;0.80;;;;;;;;;;5012861;28;20408;-74
2022/05/24 16:59:36;;;;;;;2.50;0.80;;;;;;;;;;5012913;28;20028;-71
2022/05/24 17:02:02;;;;;;;1.88;0.80;;;;;;;;;;5013116;28;20025;-73
2022/05/24 17:04:29;;;;;;;2.60;0.90;;;;;;;;;;5012811;28;20018;-74
2022/05/24 17:06:55;;;;;;;4.28;0.60;;;;;;;;;;5012930;28;20092;-73
2022/05/24 17:09:20;;;;;;;2.65;0.80;;;;;;;;;;5012861;28;20018;-73
2022/05/24 17:11:46;;;;;;;2.13;0.80;;;;;;;;;;5012831;28;20014;-74
2022/05/24 17:14:11;;;;;;;3.67;1.05;;;;;;;;;;5012960;28;20030;-73
2022/05/24 17:16:36;;;;;;;2.00;0.70;;;;;;;;;;5012954;28;20025;-75
2022/05/24 17:19:02;;;;;;;2.67;0.68;;;;;;;;;;5012717;28;20017;-73
2022/05/24 17:21:27;;;;;;;1.38;0.70;;;;;;;;;;5011935;28;20072;-72
2022/05/24 17:23:53;;;;;;;4.20;0.90;;;;;;;;;;5011229;28;20469;-70
2022/05/24 17:26:18;;;;;;;3.25;0.90;;;;;;;;;;5011066;28;20033;-71
2022/05/24 17:28:44;;;;;;;2.28;0.80;;;;;;;;;;5012289;28;20341;-72
2022/05/24 17:31:09;;;;;;;2.50;0.98;;;;;;;;;;5012153;28;20045;-73
2022/05/24 17:33:38;;;;;;;4.95;1.10;;;;;;;;;;5012402;28;20030;-72
2022/05/24 17:36:04;;;;;;;2.95;1.00;;;;;;;;;;5012303;28;20037;-74